Rockwell City, Iowa
Current Conditions -  °F | °C
As of 11:15 AM on Friday 31 Oct 2014 (Local Time) from KFOD Reporting Station
Clear Clear  
Wind Chill: 25°   Ceiling: Unl
Heat Index: 34°   Visibility: 10mi
Dew Point: 18°   Wind: 12mph
Humidity: 52%   Direction: 360°N
Pressure: 30.54"   Gusts: NA
Location:  42.4°N, 94.63°W
Report Text: KFOD 311615Z AUTO 36010KT 330V040 10SM CLR 01/M08 A3054 RMK AO1
Loading
Personal Weather Stations






























Interactive Weather Map
Tropical Storm Tracking
New forecast layout! Learn more

10-Day Weather Forecast

Advertisements
Track Severe Weather on mobile